Air Navigation Services of Czech Republic
Airport: LKPD Updated:  19.01.2018 14:51:05  UTC
 SPECI LKPD 19.01. 14:28 ...
SPECI LKPD 191428Z 22005KT 6000 -SHSN FEW004 BKN015 OVC020 00/M00 Q1008 =
 SPECI LKPD 19.01. 14:20 ...
SPECI LKPD 191420Z 23005KT 2000 -SHSN BKN015 OVC022 00/M00 Q1008 =
 METAR LKPD 19.01. 14:00 ...
METAR LKPD 191400Z 25009KT 2000 -SHSN SCT019 OVC024 01/M00 Q1008 NOSIG =
 TAF LKPD 19.01. 11:00 AAA
TAF AMD LKPD 191100Z 1914/2012 25008KT 9999 BKN030      TEMPO 1914/1922 5000 SHRASN BKN020 OVC035      TEMPO 1914/1918 1500 SN BKN015 OVC025      TEMPO 2004/2012 2000 SN BKN010 OVC025=